ADDS METAR Data INFO
IDs: Format: Raw Decoded Include TAF

Data at: 0947 UTC 25 Jun 2018

KJOT 250935Z AUTO 05007KT 10SM BKN008 18/17 A3008 RMK AO2 T01780172
KJOT 250915Z AUTO 06007KT 10SM SCT008 18/17 A3008 RMK AO2 T01770171
KJOT 250855Z AUTO 05005KT 10SM CLR 18/17 A3008 RMK AO2 T01770170
KJOT 250835Z AUTO 05006KT 10SM CLR 18/17 A3007 RMK AO2 T01770170
KJOT 250815Z AUTO 05005KT 10SM SCT029 18/17 A3007 RMK AO2 T01780170
KJOT 250755Z AUTO 05003KT 10SM CLR 18/17 A3008 RMK AO2 T01810172
KJOT 250735Z AUTO 04004KT 10SM CLR 18/17 A3008 RMK AO2 T01820173
KJOT 250715Z AUTO 05004KT 10SM CLR 18/18 A3008 RMK AO2 T01830175
KJOT 250655Z AUTO 05004KT 10SM CLR 19/18 A3007 RMK AO2 T01850176
KJOT 250635Z AUTO 04005KT 10SM CLR 19/18 A3007 RMK AO2 T01880178
KJOT 250615Z AUTO 05006KT 10SM SCT009 19/18 A3007 RMK AO2 T01900180
KJOT 250555Z AUTO 05007KT 10SM OVC009 19/18 A3007 RMK AO2 T01930183 10245 20186 402950160
KJOT 250535Z AUTO 05005KT 10SM OVC009 19/18 A3006 RMK AO2 T01920183
KJOT 250515Z AUTO 05007KT 10SM OVC009 19/18 A3006 RMK AO2 T01910180
KJOT 250455Z AUTO 05006KT 10SM OVC011 19/18 A3007 RMK AO2 T01880178
KJOT 250435Z AUTO 05005KT 10SM OVC011 19/18 A3007 RMK AO2 T01870176
KJOT 250415Z AUTO 06006KT 10SM OVC011 19/18 A3007 RMK AO2 T01880176
KJOT 250355Z AUTO 05009G14KT 10SM OVC011 19/18 A3008 RMK AO2 T01880176
KJOT 250335Z AUTO 07011KT 10SM SCT011 19/17 A3007 RMK AO2 T01880174
KJOT 250315Z AUTO 04008KT 10SM CLR 20/17 A3007 RMK AO2 T01950173
KJOT 250255Z AUTO 07004KT 10SM CLR 20/17 A3006 RMK AO2 T01980172
KJOT 250235Z AUTO 05007KT 10SM CLR 20/17 A3005 RMK AO2 T02020172
KJOT 250215Z AUTO 06008KT 10SM CLR 21/17 A3003 RMK AO2 T02060172
KJOT 250155Z AUTO 05008KT 10SM CLR 21/17 A3002 RMK AO2 T02090173
KJOT 250135Z AUTO 06005KT 10SM CLR 21/17 A3002 RMK AO2 T02120172
KJOT 250115Z AUTO 06007KT 10SM CLR 22/17 A3001 RMK AO2 T02200171
KJOT 250055Z AUTO 05006KT 10SM CLR 23/17 A3000 RMK AO2 T02260171
KJOT 250035Z AUTO 04007KT 10SM CLR 24/17 A2999 RMK AO2 T02350168
KJOT 250015Z AUTO 05009KT 10SM SCT070 24/17 A2999 RMK AO2 T02400170
KJOT 242355Z AUTO 06007KT 10SM SCT050 SCT070 24/17 A2999 RMK AO2 T02430170 10295 20240
KJOT 242335Z AUTO 05006KT 10SM SCT050 SCT060 25/16 A2999 RMK AO2 T02460163
KJOT 242315Z AUTO 05007KT 10SM SCT050 SCT065 25/16 A2998 RMK AO2 T02510162
KJOT 242255Z AUTO 07010KT 10SM SCT050 BKN075 25/17 A2998 RMK AO2 T02480170
KJOT 242235Z AUTO 07007KT 10SM BKN050 25/18 A2998 RMK AO2 T02530179
KJOT 242215Z AUTO 07011G16KT 10SM SCT050 26/19 A2997 RMK AO2 T02590186
KJOT 242155Z AUTO 04011G15KT 10SM SCT050 BKN070 BKN095 26/19 A2998 RMK AO2 T02640187
KJOT 242135Z AUTO 06011KT 10SM SCT050 BKN075 BKN095 27/20 A2997 RMK AO2 T02700195
KJOT 242115Z AUTO 05007KT 10SM SCT070 30/18 A2997 RMK AO2 T02950182
KJOT 242055Z AUTO 00000KT 10SM CLR 29/17 A2997 RMK AO2 T02910166
KJOT 242035Z AUTO 00000KT 10SM CLR 29/16 A2998 RMK AO2 T02920163
KJOT 242015Z AUTO 22003KT 10SM SCT065 SCT075 29/17 A2998 RMK AO2 T02900168
KJOT 241955Z AUTO 21004KT 10SM SCT065 SCT075 SCT085 29/17 A2998 RMK AO2 T02880171
KJOT 241935Z AUTO 00000KT 10SM SCT070 SCT080 29/16 A2998 RMK AO2 T02880164
KJOT 241915Z AUTO 26003KT 10SM SCT080 29/16 A2998 RMK AO2 T02870158
KJOT 241855Z AUTO 00000KT 10SM SCT080 28/16 A2998 RMK AO2 T02820163
KJOT 241835Z AUTO 34005KT 10SM SCT080 29/17 A2997 RMK AO2 T02880167
KJOT 241815Z AUTO 32004KT 10SM CLR 28/17 A2998 RMK AO2 T02840169
KJOT 241755Z AUTO 00000KT 10SM CLR 28/17 A2997 RMK AO2 T02810170 10284 20188
KJOT 241735Z AUTO 00000KT 10SM CLR 28/17 A2997 RMK AO2 T02810171
KJOT 241715Z AUTO 00000KT 10SM CLR 28/18 A2996 RMK AO2 T02790180
KJOT 241655Z AUTO 01004KT 10SM CLR 28/19 A2995 RMK AO2 T02750187
KJOT 241635Z AUTO 04005KT 10SM CLR 27/18 A2994 RMK AO2 T02700180
KJOT 241615Z AUTO 03005KT 10SM CLR 27/18 A2994 RMK AO2 T02670175
KJOT 241555Z AUTO 36004KT 10SM CLR 27/17 A2994 RMK AO2 T02660171
KJOT 241535Z AUTO 33005KT 10SM CLR 27/16 A2994 RMK AO2 T02660160
KJOT 241515Z AUTO 35003KT 10SM CLR 26/17 A2995 RMK AO2 T02610170
KJOT 241455Z AUTO 32003KT 10SM CLR 26/17 A2995 RMK AO2 T02560171
KJOT 241435Z AUTO 28005KT 10SM CLR 26/19 A2995 RMK AO2 T02550190
KJOT 241415Z AUTO 00000KT 10SM CLR 25/19 A2996 RMK AO2 T02460186
KJOT 241355Z AUTO 29003KT 10SM CLR 23/20 A2995 RMK AO2 T02320197
KJOT 241335Z AUTO 32003KT 10SM CLR 22/20 A2994 RMK AO2 T02230197
KJOT 241315Z AUTO 23003KT 10SM CLR 22/20 A2993 RMK AO2 T02180198
KJOT 241255Z AUTO 00000KT 10SM CLR 21/20 A2992 RMK AO2 T02110196
KJOT 241235Z AUTO 00000KT 10SM CLR 20/20 A2990 RMK AO2 T02020200
KJOT 241215Z AUTO 00000KT 7SM CLR 19/19 A2989 RMK AO2 T01930193
KJOT 241155Z AUTO 00000KT 4SM BR CLR 19/19 A2989 RMK AO2 T01880188 10208 20160
KJOT 241135Z AUTO 00000KT 2SM BR BKN003 18/18 A2988 RMK AO2 T01830183
KJOT 241115Z AUTO 00000KT 2SM BR SCT003 18/18 A2987 RMK AO2 T01760176
KJOT 241055Z AUTO 00000KT 1SM BR OVC003 18/18 A2988 RMK AO2 T01750175
KJOT 241035Z AUTO 00000KT M1/4SM FG OVC003 16/16 A2987 RMK AO2 T01600160
KJOT 241015Z AUTO 00000KT 3/4SM BR BKN004 17/17 A2987 RMK AO2 T01710171
KJOT 240955Z AUTO 00000KT 1SM BR OVC002 18/18 A2987 RMK AO2 T01750175
KJOT 240935Z AUTO 00000KT 1/4SM FG OVC004 17/17 A2986 RMK AO2 T01730173
KJOT 240915Z AUTO 00000KT 1/4SM FG BKN004 18/18 A2985 RMK AO2 T01760176
KJOT 240855Z AUTO 00000KT 1/2SM FG VV005 18/18 A2984 RMK AO2 VIS 1/4V2 T01790179
KJOT 240835Z AUTO 00000KT 5SM BR CLR 19/19 A2984 RMK AO2 T01860186
KJOT 240815Z AUTO 00000KT 5SM BR CLR 18/18 A2984 RMK AO2 T01830181
KJOT 240755Z AUTO 00000KT 10SM SCT120 20/19 A2984 RMK AO2 T01950192
KJOT 240735Z AUTO 00000KT 10SM SCT120 20/19 A2984 RMK AO2 T01990193
KJOT 240715Z AUTO 00000KT 10SM CLR 20/20 A2984 RMK AO2 T02010195
KJOT 240655Z AUTO 00000KT 10SM CLR 20/20 A2984 RMK AO2 T02040195
KJOT 240635Z AUTO 00000KT 10SM SCT120 21/20 A2984 RMK AO2 T02050195
KJOT 240615Z AUTO 00000KT 10SM OVC110 21/20 A2984 RMK AO2 T02060195
KJOT 240555Z AUTO 00000KT 10SM OVC110 21/20 A2984 RMK AO2 T02070195 10230 20207 402520176
KJOT 240535Z AUTO 00000KT 10SM OVC110 21/20 A2984 RMK AO2 T02100195
KJOT 240515Z AUTO 00000KT 10SM OVC110 21/20 A2983 RMK AO2 T02110195
KJOT 240455Z AUTO 00000KT 10SM OVC110 21/19 A2983 RMK AO2 T02140194
KJOT 240435Z AUTO 23003KT 10SM OVC110 22/19 A2982 RMK AO2 T02150193
KJOT 240415Z AUTO 00000KT 10SM OVC110 22/19 A2982 RMK AO2 T02150194
KJOT 240355Z AUTO 00000KT 10SM OVC100 21/20 A2982 RMK AO2 T02100197
KJOT 240335Z AUTO 21003KT 10SM OVC090 21/20 A2982 RMK AO2 T02120197
KJOT 240315Z AUTO 20003KT 10SM OVC090 21/20 A2982 RMK AO2 T02130196
KJOT 240255Z AUTO 22003KT 10SM OVC090 22/20 A2982 RMK AO2 T02150196
KJOT 240235Z AUTO 00000KT 10SM OVC090 21/20 A2981 RMK AO2 T02140196
KJOT 240215Z AUTO 22003KT 10SM OVC090 22/20 A2980 RMK AO2 T02190195
KJOT 240155Z AUTO 22004KT 10SM OVC090 22/20 A2980 RMK AO2 T02170196
KJOT 240135Z AUTO 00000KT 10SM BKN090 22/20 A2979 RMK AO2 T02190195
KJOT 240115Z AUTO 22003KT 10SM OVC090 22/20 A2979 RMK AO2 T02220196
KJOT 240055Z AUTO 21003KT 10SM OVC080 23/19 A2978 RMK AO2 T02250194
KJOT 240035Z AUTO 23003KT 10SM OVC080 23/19 A2978 RMK AO2 T02270192
KJOT 240015Z AUTO 21003KT 10SM OVC080 23/19 A2978 RMK AO2 T02290192
KJOT 232355Z AUTO 23004KT 10SM OVC080 23/19 A2978 RMK AO2 T02310190 10252 20231
KJOT 232335Z AUTO 22003KT 10SM OVC070 23/19 A2978 RMK AO2 T02330192
KJOT 232315Z AUTO 20006KT 10SM OVC070 23/19 A2978 RMK AO2 T02330194
KJOT 232255Z AUTO 19005KT A2977 RMK AO2 PWINO
KJOT 232235Z AUTO 20005KT 10SM OVC070 24/19 A2978 RMK AO2 T02380191
KJOT 232215Z AUTO 21004KT 10SM OVC070 24/19 A2978 RMK AO2 T02380187
KJOT 232155Z AUTO 27005KT 10SM OVC060 24/18 A2978 RMK AO2 T02400181